createdAt,value
2023-01-29T00:07:14.948Z,11.80
2023-01-29T00:17:09.203Z,14.80
2023-01-29T00:27:08.907Z,11.60
2023-01-29T00:37:08.359Z,12.60
2023-01-29T00:47:08.032Z,12.80
2023-01-29T00:57:07.706Z,12.50
2023-01-29T01:07:02.042Z,12.60
2023-01-29T01:17:01.703Z,13.00
2023-01-29T01:27:01.624Z,12.30
2023-01-29T01:37:00.982Z,13.30
2023-01-29T01:47:00.581Z,13.00
2023-01-29T01:56:54.702Z,13.10
2023-01-29T02:06:54.372Z,12.20
2023-01-29T02:16:53.979Z,13.20
2023-01-29T02:26:53.764Z,14.00
2023-01-29T02:36:53.404Z,13.40
2023-01-29T02:46:47.386Z,13.30
2023-01-29T02:56:47.159Z,13.40
2023-01-29T03:06:46.801Z,13.70
2023-01-29T03:16:46.321Z,12.50
2023-01-29T03:26:46.093Z,12.70
2023-01-29T03:36:40.056Z,13.90
2023-01-29T03:46:39.842Z,13.70
2023-01-29T03:56:39.340Z,13.60
2023-01-29T04:06:39.147Z,13.20
2023-01-29T04:16:38.745Z,12.50
2023-01-29T04:26:33.211Z,13.90
2023-01-29T04:36:32.427Z,13.00
2023-01-29T04:46:32.061Z,14.00
2023-01-29T04:56:31.841Z,13.70
2023-01-29T05:06:26.336Z,12.60
2023-01-29T05:16:25.859Z,12.10
2023-01-29T05:26:25.762Z,13.30
2023-01-29T05:36:25.410Z,13.80
2023-01-29T05:46:24.894Z,13.00
2023-01-29T05:56:18.857Z,13.20
2023-01-29T06:06:18.490Z,13.90
2023-01-29T06:16:19.965Z,14.10
2023-01-29T06:26:17.773Z,12.60
2023-01-29T06:36:12.464Z,12.90
2023-01-29T06:46:12.108Z,12.20
2023-01-29T06:56:11.584Z,13.40
2023-01-29T07:06:11.359Z,12.70
2023-01-29T07:16:11.179Z,13.30
2023-01-29T07:26:05.016Z,13.20
2023-01-29T07:36:04.645Z,14.00
2023-01-29T07:46:04.478Z,15.20
2023-01-29T07:56:04.098Z,14.80
2023-01-29T08:06:03.710Z,15.00
2023-01-29T08:15:57.678Z,15.60
2023-01-29T08:25:57.474Z,14.80
2023-01-29T08:35:56.970Z,17.00
2023-01-29T08:45:56.793Z,14.60
2023-01-29T08:55:56.247Z,14.80
2023-01-29T09:05:50.669Z,15.60
2023-01-29T09:15:50.314Z,14.50
2023-01-29T09:25:49.908Z,15.20
2023-01-29T09:35:49.540Z,14.50
2023-01-29T09:45:49.223Z,14.30
2023-01-29T09:55:50.454Z,14.30
2023-01-29T10:05:42.923Z,13.10
2023-01-29T10:15:42.546Z,14.60
2023-01-29T10:25:42.172Z,13.50
2023-01-29T10:35:41.797Z,13.90
2023-01-29T10:45:41.481Z,14.50
2023-01-29T10:55:37.603Z,13.70
2023-01-29T11:05:35.469Z,14.10
2023-01-29T11:15:35.094Z,14.20
2023-01-29T11:25:34.882Z,14.30
2023-01-29T11:35:34.385Z,9.50
2023-01-29T11:45:34.061Z,13.90
2023-01-29T11:55:33.040Z,14.00
2023-01-29T12:05:27.926Z,11.90
2023-01-29T12:15:27.696Z,13.40
2023-01-29T12:25:27.304Z,14.00
2023-01-29T12:35:26.785Z,15.20
2023-01-29T12:45:26.526Z,14.20
2023-01-29T12:55:26.101Z,15.20
2023-01-29T13:05:20.469Z,14.80
2023-01-29T13:15:19.949Z,15.00
2023-01-29T13:25:19.751Z,14.30
2023-01-29T13:35:19.409Z,14.50
2023-01-29T13:45:19.240Z,13.80
2023-01-29T13:55:18.722Z,13.50
2023-01-29T14:05:18.374Z,12.40
2023-01-29T14:15:21.033Z,13.50
2023-01-29T14:25:11.917Z,12.80
2023-01-29T14:35:11.665Z,13.50
2023-01-29T14:45:11.315Z,11.50
2023-01-29T14:55:10.757Z,11.40
2023-01-29T15:05:10.549Z,11.80
2023-01-29T15:15:10.243Z,10.70
2023-01-29T15:25:09.854Z,11.80
2023-01-29T15:35:04.240Z,11.40
2023-01-29T15:45:03.879Z,12.00
2023-01-29T15:55:03.816Z,11.60
2023-01-29T16:05:03.155Z,11.50
2023-01-29T16:15:03.077Z,11.80
2023-01-29T16:25:02.433Z,11.50
2023-01-29T16:35:02.057Z,12.20
2023-01-29T16:45:01.683Z,11.80
2023-01-29T16:54:56.125Z,11.70
2023-01-29T17:04:55.573Z,10.60
2023-01-29T17:14:55.228Z,9.70
2023-01-29T17:24:54.698Z,9.00
2023-01-29T17:34:54.522Z,9.10
2023-01-29T17:44:54.153Z,7.90
2023-01-29T17:54:53.903Z,7.70
2023-01-29T18:04:48.147Z,7.90
2023-01-29T18:14:47.806Z,7.10
2023-01-29T18:24:47.239Z,7.80
2023-01-29T18:34:47.051Z,7.40
2023-01-29T18:44:46.505Z,7.70
2023-01-29T18:54:46.153Z,7.90
2023-01-29T19:04:46.128Z,8.30
2023-01-29T19:14:40.534Z,8.30
2023-01-29T19:24:39.985Z,9.20
2023-01-29T19:34:39.753Z,9.10
2023-01-29T19:44:39.288Z,9.90
2023-01-29T19:54:38.882Z,9.70
2023-01-29T20:04:38.488Z,8.20
2023-01-29T20:14:38.283Z,9.30
2023-01-29T20:24:32.587Z,8.40
2023-01-29T20:34:32.536Z,8.90
2023-01-29T20:44:31.984Z,8.60
2023-01-29T20:54:31.489Z,8.80
2023-01-29T21:04:31.131Z,9.60
2023-01-29T21:14:30.929Z,9.80
2023-01-29T21:24:30.537Z,9.80
2023-01-29T21:34:25.014Z,9.50
2023-01-29T21:44:24.351Z,7.90
2023-01-29T21:54:24.205Z,9.40
2023-01-29T22:04:23.790Z,9.80
2023-01-29T22:14:23.269Z,10.10
2023-01-29T22:24:23.078Z,8.90
2023-01-29T22:34:22.563Z,9.20
2023-01-29T22:44:16.899Z,9.40
2023-01-29T22:54:16.521Z,8.40
2023-01-29T23:04:16.490Z,10.30
2023-01-29T23:14:16.158Z,10.10
2023-01-29T23:24:15.634Z,8.90
2023-01-29T23:34:15.404Z,8.60
2023-01-29T23:44:14.879Z,8.90
2023-01-29T23:54:09.062Z,8.00
